Time;durP1;ratioP1;P1;durP2;ratioP2;P2;SDS_P1;SDS_P2;PMS_P1;PMS_P2;Temp;Humidity;BMP_temperature;BMP_pressure;BME280_temperature;BME280_humidity;BME280_pressure;Samples;Min_cycle;Max_cycle;Signal;HPM_P1;HPM_P2
2022/08/21 00:01:41;;;;;;;11.93;6.75;;;;;;;18.29;100.00;94089.09;5089501;28;20256;-79
2022/08/21 00:04:10;;;;;;;17.45;8.10;;;;;;;18.24;100.00;94087.50;5088774;28;20202;-79
2022/08/21 00:06:37;;;;;;;14.55;6.97;;;;;;;18.07;100.00;94088.25;5089161;28;20218;-79
2022/08/21 00:09:08;;;;;;;19.95;7.07;;;;;;;18.17;100.00;94079.28;5089601;28;20194;-79
2022/08/21 00:11:37;;;;;;;17.45;6.95;;;;;;;18.41;100.00;94084.03;5091109;28;20224;-79
2022/08/21 00:14:05;;;;;;;19.63;8.23;;;;;;;18.39;100.00;94072.66;5093507;28;20203;-79
2022/08/21 00:16:33;;;;;;;15.93;7.60;;;;;;;18.28;100.00;94071.84;5093298;28;20283;-79
2022/08/21 00:18:59;;;;;;;13.82;7.28;;;;;;;18.25;100.00;94071.84;5093605;28;20231;-79
2022/08/21 00:21:26;;;;;;;13.88;7.70;;;;;;;18.08;100.00;94063.19;5093279;28;20273;-79
2022/08/21 00:23:53;;;;;;;19.67;8.32;;;;;;;17.93;100.00;94067.06;5093326;28;20228;-79
2022/08/21 00:26:22;;;;;;;15.90;8.13;;;;;;;17.85;100.00;94064.72;5093298;28;20251;-79
2022/08/21 00:28:49;;;;;;;17.52;7.75;;;;;;;17.91;100.00;94068.63;5092690;28;20209;-79
2022/08/21 00:31:16;;;;;;;19.08;8.55;;;;;;;17.92;100.00;94061.97;5092638;28;20978;-80
2022/08/21 00:33:44;;;;;;;18.50;8.68;;;;;;;17.92;100.00;94057.28;5091631;28;20237;-78
2022/08/21 00:36:11;;;;;;;16.67;7.95;;;;;;;17.92;100.00;94060.03;5093493;28;20205;-78
2022/08/21 00:38:37;;;;;;;17.33;7.70;;;;;;;17.97;100.00;94067.09;5091410;28;20237;-78
2022/08/21 00:41:08;;;;;;;19.48;8.45;;;;;;;18.11;100.00;94067.91;5093223;28;20706;-79
2022/08/21 00:43:39;;;;;;;17.08;7.70;;;;;;;18.16;100.00;94058.53;5092956;28;20190;-79
2022/08/21 00:46:08;;;;;;;16.92;7.88;;;;;;;18.35;100.00;94066.38;5093146;28;20239;-78
2022/08/21 00:48:35;;;;;;;21.95;7.80;;;;;;;18.45;100.00;94065.59;5079649;28;20194;-78
2022/08/21 00:51:07;;;;;;;16.85;7.95;;;;;;;18.47;100.00;94063.25;5092881;28;20197;-78
2022/08/21 00:53:36;;;;;;;18.55;7.82;;;;;;;18.28;100.00;94074.59;5091274;28;20689;-78
2022/08/21 00:56:06;;;;;;;14.45;7.57;;;;;;;18.32;100.00;94069.88;5092570;28;20692;-78
2022/08/21 00:58:35;;;;;;;15.50;7.00;;;;;;;18.39;100.00;94060.91;5092741;28;20214;-77
2022/08/21 01:01:06;;;;;;;20.30;7.80;;;;;;;18.50;100.00;94061.69;5092853;28;20203;-78
2022/08/21 01:03:34;;;;;;;17.65;7.82;;;;;;;18.56;100.00;94064.81;5092782;28;20699;-77
2022/08/21 01:06:01;;;;;;;18.50;8.30;;;;;;;18.64;100.00;94060.94;5092232;28;20255;-78
2022/08/21 01:08:29;;;;;;;16.35;7.68;;;;;;;18.75;100.00;94054.25;5092104;28;20206;-78
2022/08/21 01:10:59;;;;;;;16.13;7.97;;;;;;;18.63;100.00;94048.38;5092758;28;20210;-78
2022/08/21 01:13:27;;;;;;;15.43;7.53;;;;;;;18.60;100.00;94047.19;5092048;28;20226;-78
2022/08/21 01:15:56;;;;;;;15.75;7.07;;;;;;;18.73;100.00;94047.59;5091794;28;20203;-78
2022/08/21 01:18:25;;;;;;;15.00;7.68;;;;;;;18.74;100.00;94041.72;5091291;28;20239;-78
2022/08/21 01:21:12;;;;;;;16.20;8.18;;;;;;;18.76;100.00;94046.81;5092180;28;20210;-77
2022/08/21 01:23:42;;;;;;;18.15;8.07;;;;;;;18.78;100.00;94038.97;5090501;28;20198;-78
2022/08/21 01:26:09;;;;;;;13.65;7.40;;;;;;;18.81;100.00;94038.19;5091929;28;20206;-78
2022/08/21 01:28:43;;;;;;;15.73;7.47;;;;;;;18.81;100.00;94035.44;5091292;28;20230;-77
2022/08/21 01:31:13;;;;;;;14.73;6.72;;;;;;;18.66;100.00;94036.63;5090294;28;20361;-76
2022/08/21 01:33:40;;;;;;;12.70;6.15;;;;;;;18.67;100.00;94041.72;5091127;28;20237;-77
2022/08/21 01:36:08;;;;;;;14.15;6.97;;;;;;;18.67;100.00;94040.94;5091877;28;20731;-77
2022/08/21 01:38:36;;;;;;;10.07;4.38;;;;;;;18.68;100.00;94050.75;5091920;28;20724;-77
2022/08/21 01:41:03;;;;;;;10.80;4.30;;;;;;;18.64;100.00;94041.72;5091641;28;20251;-78
2022/08/21 01:43:30;;;;;;;10.43;4.35;;;;;;;18.62;100.00;94041.31;5091161;28;20210;-78
2022/08/21 01:45:57;;;;;;;9.00;4.03;;;;;;;18.58;99.84;94052.31;5091561;28;20203;-77
2022/08/21 01:48:23;;;;;;;7.18;3.53;;;;;;;18.60;99.62;94046.41;5091557;28;20251;-78
2022/08/21 01:50:50;;;;;;;5.88;3.38;;;;;;;18.68;97.93;94034.28;5091650;28;20251;-78
2022/08/21 01:53:17;;;;;;;6.32;3.17;;;;;;;18.66;97.51;94040.16;5091712;28;20271;-77
2022/08/21 01:55:45;;;;;;;8.27;3.53;;;;;;;18.54;97.71;94047.97;5091043;28;20542;-77
2022/08/21 01:58:13;;;;;;;4.68;2.92;;;;;;;18.61;97.41;94039.75;5091130;28;20207;-77
2022/08/21 02:00:40;;;;;;;8.45;3.42;;;;;;;18.55;97.39;94041.31;5091133;28;20214;-77
2022/08/21 02:03:06;;;;;;;6.15;3.30;;;;;;;18.53;97.50;94049.16;5089765;28;20203;-77
2022/08/21 02:05:34;;;;;;;3.83;2.72;;;;;;;18.39;98.24;94045.22;5090870;28;20203;-77
2022/08/21 02:08:02;;;;;;;5.22;2.95;;;;;;;18.39;98.72;94049.94;5090954;28;20199;-76
2022/08/21 02:10:32;;;;;;;6.20;3.10;;;;;;;18.30;98.26;94053.06;5090918;28;20755;-77
2022/08/21 02:13:01;;;;;;;9.15;3.65;;;;;;;18.10;98.90;94062.81;5078145;28;20218;-77
2022/08/21 02:15:29;;;;;;;4.57;2.55;;;;;;;18.04;98.95;94056.16;5091037;28;20202;-77
2022/08/21 02:17:59;;;;;;;5.43;2.72;;;;;;;18.08;98.82;94059.66;5089369;28;20238;-77
2022/08/21 02:20:28;;;;;;;6.15;2.90;;;;;;;18.22;98.79;94064.41;5089710;28;20198;-76
2022/08/21 02:22:56;;;;;;;6.40;2.40;;;;;;;18.28;97.35;94060.91;5090835;28;20263;-77
2022/08/21 02:25:25;;;;;;;8.73;3.10;;;;;;;18.15;96.71;94062.44;5090746;28;20278;-77
2022/08/21 02:27:53;;;;;;;4.00;2.20;;;;;;;18.14;97.32;94066.34;5091238;28;20202;-77
2022/08/21 02:30:24;;;;;;;4.22;2.78;;;;;;;18.32;97.08;94067.13;5091481;28;20206;-77
2022/08/21 02:32:51;;;;;;;5.85;2.70;;;;;;;18.55;96.86;94066.78;5090206;28;20306;-77
2022/08/21 02:35:19;;;;;;;4.82;2.63;;;;;;;18.65;97.46;94074.25;5089439;28;20206;-76
2022/08/21 02:37:49;;;;;;;4.78;2.88;;;;;;;18.68;97.54;94070.72;5090641;28;20202;-76
2022/08/21 02:40:17;;;;;;;4.72;2.80;;;;;;;18.67;96.69;94065.63;5090394;28;20565;-76
2022/08/21 02:42:44;;;;;;;4.88;2.63;;;;;;;18.68;96.25;94073.47;5090093;28;20255;-76
2022/08/21 02:45:13;;;;;;;5.43;3.10;;;;;;;18.79;96.35;94070.72;5090474;28;20347;-76
2022/08/21 02:47:47;;;;;;;6.05;3.40;;;;;;;18.64;96.88;94066.41;5090430;28;20211;-75
2022/08/21 02:50:14;;;;;;;9.45;4.82;;;;;;;18.52;97.60;94058.53;5090443;28;20220;-76
2022/08/21 02:52:40;;;;;;;9.05;3.53;;;;;;;18.54;98.86;94061.69;5090298;28;20222;-76
2022/08/21 02:55:07;;;;;;;7.10;3.55;;;;;;;18.56;99.33;94064.81;5090187;28;20703;-76
2022/08/21 02:57:34;;;;;;;7.65;4.25;;;;;;;18.42;100.00;94051.91;5090451;28;20194;-77
2022/08/21 03:00:01;;;;;;;12.75;4.60;;;;;;;18.48;100.00;94059.31;5090346;28;20198;-76
2022/08/21 03:02:28;;;;;;;9.40;4.15;;;;;;;18.50;100.00;94060.91;5089998;28;20198;-78
2022/08/21 03:04:56;;;;;;;6.03;3.45;;;;;;;18.47;100.00;94068.72;5089934;28;20271;-77
2022/08/21 03:07:23;;;;;;;7.88;4.35;;;;;;;18.35;100.00;94071.06;5089578;28;20260;-77
2022/08/21 03:09:49;;;;;;;12.60;4.32;;;;;;;18.31;100.00;94075.78;5089653;28;20561;-78
2022/08/21 03:12:16;;;;;;;11.63;3.90;;;;;;;18.25;99.94;94066.38;5089471;28;20568;-78
2022/08/21 03:14:43;;;;;;;6.30;3.00;;;;;;;18.15;99.73;94070.66;5089852;28;20206;-78
2022/08/21 03:17:10;;;;;;;5.40;2.85;;;;;;;18.01;100.00;94063.19;5088822;28;20238;-77
2022/08/21 03:19:37;;;;;;;4.30;2.72;;;;;;;18.02;99.99;94061.25;5089959;28;20210;-77
2022/08/21 03:22:05;;;;;;;5.93;3.15;;;;;;;18.06;99.78;94056.53;5090117;28;20233;-77
2022/08/21 03:24:32;;;;;;;4.78;2.40;;;;;;;18.18;100.00;94069.88;5089958;28;20608;-77
2022/08/21 03:26:59;;;;;;;3.55;2.30;;;;;;;18.26;100.00;94073.41;5089142;28;20268;-76
2022/08/21 03:29:26;;;;;;;4.43;2.45;;;;;;;18.22;100.00;94067.91;5089330;28;20205;-76
2022/08/21 03:31:54;;;;;;;4.95;2.00;;;;;;;18.11;99.27;94061.66;5088804;28;20738;-76
2022/08/21 03:34:21;;;;;;;4.72;1.92;;;;;;;18.02;98.86;94070.25;5088944;28;20317;-77
2022/08/21 03:36:49;;;;;;;8.02;2.42;;;;;;;18.05;98.88;94069.44;5089569;28;20209;-76
2022/08/21 03:39:17;;;;;;;4.50;2.53;;;;;;;18.10;99.07;94065.56;5089544;28;20657;-76
2022/08/21 03:41:44;;;;;;;5.70;2.88;;;;;;;18.02;99.64;94058.50;5088808;28;20213;-77
2022/08/21 03:44:11;;;;;;;4.63;3.08;;;;;;;17.85;98.85;94057.28;5089337;28;20251;-75
2022/08/21 03:46:39;;;;;;;5.93;2.88;;;;;;;17.81;99.39;94058.44;5091034;28;20204;-78
2022/08/21 03:49:06;;;;;;;5.75;2.83;;;;;;;17.81;99.99;94055.69;5094235;28;20202;-75
2022/08/21 03:51:35;;;;;;;4.90;2.88;;;;;;;17.72;100.00;94056.84;5093423;28;20198;-75
2022/08/21 03:54:02;;;;;;;8.88;3.38;;;;;;;17.68;100.00;94067.00;5093603;28;20299;-76
2022/08/21 03:56:30;;;;;;;5.15;3.08;;;;;;;17.68;100.00;94067.00;5093540;28;20248;-76
2022/08/21 03:58:57;;;;;;;5.32;3.17;;;;;;;17.65;100.00;94078.72;5093404;28;20294;-75
2022/08/21 04:01:25;;;;;;;4.95;3.08;;;;;;;17.59;100.00;94080.25;5093491;28;20555;-75
2022/08/21 04:03:51;;;;;;;7.05;4.05;;;;;;;17.63;100.00;94086.53;5093435;28;20202;-75
2022/08/21 04:06:18;;;;;;;5.55;3.15;;;;;;;17.51;100.00;94089.59;5092975;28;20255;-75
2022/08/21 04:08:45;;;;;;;6.95;2.90;;;;;;;17.46;100.00;94091.94;5093279;28;20206;-76
2022/08/21 04:11:12;;;;;;;4.47;2.50;;;;;;;17.44;100.00;94095.06;5093098;28;20251;-75
2022/08/21 04:13:41;;;;;;;4.65;2.70;;;;;;;17.31;100.00;94083.66;5093133;28;20291;-74
2022/08/21 04:16:08;;;;;;;6.75;2.97;;;;;;;17.27;100.00;94087.53;5079542;28;20359;-74
2022/08/21 04:18:35;;;;;;;4.60;2.63;;;;;;;17.27;100.00;94080.09;5093152;28;20222;-75
2022/08/21 04:21:03;;;;;;;8.30;3.72;;;;;;;17.28;100.00;94078.16;5093001;28;20284;-75
2022/08/21 04:23:30;;;;;;;8.05;2.97;;;;;;;17.33;100.00;94084.06;5093095;28;20283;-76
2022/08/21 04:25:58;;;;;;;6.18;3.33;;;;;;;17.38;100.00;94082.88;5092975;28;20718;-76
2022/08/21 04:28:27;;;;;;;6.60;3.42;;;;;;;17.38;100.00;94080.16;5092672;28;20198;-76
2022/08/21 04:30:56;;;;;;;6.47;3.58;;;;;;;17.45;100.00;94080.19;5092574;28;20208;-74
2022/08/21 04:33:24;;;;;;;7.85;4.13;;;;;;;17.36;100.00;94087.94;5092633;28;20769;-76
2022/08/21 04:35:51;;;;;;;9.93;4.15;;;;;;;17.39;100.00;94081.72;5092743;28;20306;-76
2022/08/21 04:38:18;;;;;;;5.20;3.38;;;;;;;17.39;100.00;94084.47;5092908;28;20224;-75
2022/08/21 04:40:46;;;;;;;9.02;4.15;;;;;;;17.37;100.00;94084.06;5092451;28;20202;-74
2022/08/21 04:43:12;;;;;;;8.23;3.67;;;;;;;17.47;100.00;94075.13;5092800;28;20297;-76
2022/08/21 04:45:42;;;;;;;7.70;3.88;;;;;;;17.40;100.00;94073.13;5092422;28;20202;-76
2022/08/21 04:48:12;;;;;;;5.47;3.13;;;;;;;17.59;100.00;94069.31;5092295;28;20210;-74
2022/08/21 04:50:44;;;;;;;7.82;4.10;;;;;;;17.96;100.00;94065.53;5092548;28;20194;-74
2022/08/21 04:53:16;;;;;;;4.97;2.83;;;;;;;18.46;98.30;94067.16;5092521;28;20218;-74
2022/08/21 04:55:45;;;;;;;12.27;4.18;;;;;;;18.52;96.83;94064.03;5092340;28;20202;-75
2022/08/21 04:58:13;;;;;;;10.27;4.47;;;;;;;18.53;96.39;94068.34;5091408;28;20264;-74
2022/08/21 05:00:41;;;;;;;8.13;3.72;;;;;;;19.40;93.21;94066.69;5092442;28;20248;-74
2022/08/21 05:03:12;;;;;;;9.00;4.85;;;;;;;20.77;87.93;94054.56;5078765;28;20644;-75
2022/08/21 05:05:39;;;;;;;9.02;4.53;;;;;;;22.33;81.24;94045.31;5092351;28;20282;-73
2022/08/21 05:08:10;;;;;;;11.60;3.90;;;;;;;23.59;75.04;94058.63;5091613;28;20206;-75
2022/08/21 05:10:37;;;;;;;4.90;2.90;;;;;;;25.09;70.02;94056.91;5092018;28;20202;-75
2022/08/21 05:13:04;;;;;;;6.82;3.95;;;;;;;26.36;63.90;94051.88;5092200;28;20198;-74
2022/08/21 05:15:31;;;;;;;5.60;3.33;;;;;;;27.25;60.32;94049.81;5091372;28;20197;-73
2022/08/21 05:17:58;;;;;;;4.82;2.75;;;;;;;27.85;58.24;94041.41;5091553;28;20245;-73
2022/08/21 05:20:26;;;;;;;6.30;3.53;;;;;;;28.29;57.76;94040.16;5091807;28;20263;-73
2022/08/21 05:22:53;;;;;;;5.72;3.58;;;;;;;27.78;57.39;94047.22;5092043;28;20638;-73
2022/08/21 05:25:20;;;;;;;4.78;3.10;;;;;;;26.67;60.42;94052.88;5091825;28;20542;-74
2022/08/21 05:27:47;;;;;;;5.57;3.53;;;;;;;25.79;63.31;94064.59;5092125;28;20202;-73
2022/08/21 05:30:14;;;;;;;7.43;3.10;;;;;;;24.85;66.01;94066.59;5091683;28;20259;-74
2022/08/21 05:32:41;;;;;;;4.65;3.75;;;;;;;24.77;67.00;94055.69;5091841;28;20202;-73
2022/08/21 05:35:08;;;;;;;7.38;4.00;;;;;;;24.64;67.63;94054.81;5091465;28;20234;-73
2022/08/21 05:37:37;;;;;;;7.47;4.15;;;;;;;25.73;64.16;94052.47;5091176;28;20247;-73
2022/08/21 05:40:04;;;;;;;5.25;4.05;;;;;;;27.06;60.65;94042.53;5091314;28;20207;-73
2022/08/21 05:42:31;;;;;;;7.88;3.90;;;;;;;29.08;54.41;94037.09;5091292;28;20228;-73
2022/08/21 05:44:58;;;;;;;8.82;3.95;;;;;;;28.51;54.73;94044.91;5091103;28;20210;-72
2022/08/21 05:47:25;;;;;;;6.40;3.63;;;;;;;27.75;56.67;94037.75;5091371;28;20195;-73
2022/08/21 05:49:52;;;;;;;6.75;3.72;;;;;;;27.07;58.84;94036.50;5091015;28;20267;-73
2022/08/21 05:52:20;;;;;;;4.90;4.05;;;;;;;26.78;60.13;94033.09;5091622;28;20354;-73
2022/08/21 05:54:48;;;;;;;6.13;3.90;;;;;;;26.87;59.95;94036.75;5091003;28;20222;-75
2022/08/21 05:57:15;;;;;;;6.22;3.70;;;;;;;26.06;62.54;94037.25;5091726;28;20213;-74
2022/08/21 05:59:42;;;;;;;7.22;4.00;;;;;;;24.97;64.75;94038.22;5091263;28;20194;-74
2022/08/21 06:02:09;;;;;;;5.45;3.22;;;;;;;24.95;66.65;94046.97;5091298;28;20289;-74
2022/08/21 06:04:37;;;;;;;5.43;3.78;;;;;;;24.64;65.84;94060.34;5090926;28;20683;-74
2022/08/21 06:07:04;;;;;;;5.35;3.58;;;;;;;24.19;67.58;94062.16;5091111;28;20248;-75
2022/08/21 06:09:31;;;;;;;6.20;4.10;;;;;;;23.58;69.65;94057.06;5090335;28;20206;-73
2022/08/21 06:11:59;;;;;;;6.72;4.68;;;;;;;23.86;69.37;94056.50;5090685;28;20653;-73
2022/08/21 06:14:26;;;;;;;4.93;3.92;;;;;;;24.45;67.65;94052.91;5090401;28;20635;-74
2022/08/21 06:16:53;;;;;;;6.78;4.70;;;;;;;26.10;62.20;94046.25;5090698;28;20230;-74
2022/08/21 06:19:19;;;;;;;6.10;4.07;;;;;;;26.03;61.54;94046.47;5090742;28;20683;-73
2022/08/21 06:21:46;;;;;;;8.25;3.90;;;;;;;25.37;63.72;94045.09;5090637;28;20709;-74
2022/08/21 06:24:13;;;;;;;5.78;4.07;;;;;;;25.82;62.44;94036.75;5077340;28;20256;-73
2022/08/21 06:26:40;;;;;;;4.65;3.85;;;;;;;25.60;63.51;94037.75;5090757;28;20198;-73
2022/08/21 06:29:10;;;;;;;7.22;4.32;;;;;;;24.63;65.48;94046.91;5090752;28;20673;-74
2022/08/21 06:31:37;;;;;;;5.72;4.00;;;;;;;24.49;66.22;94048.03;5090832;28;20202;-73
2022/08/21 06:34:04;;;;;;;7.03;4.70;;;;;;;23.46;68.83;94055.69;5090811;28;20265;-73
2022/08/21 06:36:31;;;;;;;7.47;4.60;;;;;;;23.73;68.84;94053.59;5090523;28;20728;-72
2022/08/21 06:38:58;;;;;;;9.15;4.00;;;;;;;23.92;69.10;94049.25;5090335;28;20722;-74
2022/08/21 06:41:24;;;;;;;8.20;4.60;;;;;;;23.65;69.79;94062.44;5090387;28;20252;-73
2022/08/21 06:43:51;;;;;;;5.97;4.30;;;;;;;23.28;70.99;94067.06;5089534;28;20206;-72
2022/08/21 06:46:20;;;;;;;8.50;4.57;;;;;;;23.52;70.60;94053.22;5090341;28;20194;-73
2022/08/21 06:48:46;;;;;;;6.22;4.30;;;;;;;23.29;71.19;94068.63;5090070;28;20215;-74
2022/08/21 06:51:13;;;;;;;9.02;4.15;;;;;;;23.07;71.37;94059.16;5088886;28;20203;-74
2022/08/21 06:53:40;;;;;;;5.75;4.45;;;;;;;23.17;71.15;94066.47;5089621;28;20656;-73
2022/08/21 06:56:07;;;;;;;11.18;6.75;;;;;;;23.11;71.50;94059.84;5089883;28;20231;-73
2022/08/21 06:58:34;;;;;;;7.25;3.67;;;;;;;23.10;71.56;94066.59;5089959;28;20237;-73
2022/08/21 07:01:01;;;;;;;6.70;3.40;;;;;;;23.17;70.77;94072.00;5090172;28;20198;-74
2022/08/21 07:03:32;;;;;;;5.00;3.40;;;;;;;23.43;70.18;94083.41;5089644;28;20739;-73
2022/08/21 07:05:59;;;;;;;6.43;3.20;;;;;;;23.54;70.19;94067.41;5089693;28;20195;-72
2022/08/21 07:08:26;;;;;;;7.63;3.67;;;;;;;23.01;70.09;94069.13;5090106;28;20202;-73
2022/08/21 07:10:55;;;;;;;8.40;4.55;;;;;;;22.76;71.90;94068.72;5089294;28;20202;-72
2022/08/21 07:13:22;;;;;;;9.35;4.45;;;;;;;22.78;70.77;94071.88;5089515;28;20731;-73
2022/08/21 07:15:49;;;;;;;6.25;4.50;;;;;;;22.95;71.00;94079.09;5086926;28;20267;-72
2022/08/21 07:18:16;;;;;;;7.93;3.63;;;;;;;23.05;70.97;94075.38;5088966;28;20283;-71
2022/08/21 07:20:45;;;;;;;18.67;4.53;;;;;;;22.48;72.05;94076.25;5088442;28;20290;-72
2022/08/21 07:23:19;;;;;;;5.90;3.20;;;;;;;22.65;72.03;94075.22;5089502;28;20214;-72
2022/08/21 07:25:46;;;;;;;5.85;4.07;;;;;;;23.45;70.19;94064.41;5089445;28;20245;-70
2022/08/21 07:28:12;;;;;;;8.65;4.85;;;;;;;23.83;68.00;94062.88;5088985;28;20202;-74
2022/08/21 07:30:39;;;;;;;6.00;3.75;;;;;;;24.47;65.65;94044.91;5088987;28;20293;-75
2022/08/21 07:33:07;;;;;;;3.92;3.03;;;;;;;24.85;63.14;94047.22;5089691;28;20198;-73
2022/08/21 07:35:33;;;;;;;7.93;3.75;;;;;;;26.06;60.60;94037.25;5075902;28;20242;-73
2022/08/21 07:38:02;;;;;;;8.60;4.10;;;;;;;27.24;56.53;94037.16;5089832;28;20236;-73
2022/08/21 07:40:28;;;;;;;7.63;4.90;;;;;;;27.67;53.64;94032.91;5088639;28;20726;-73
2022/08/21 07:42:55;;;;;;;8.57;5.13;;;;;;;28.24;53.59;94032.41;5088838;28;20202;-73
2022/08/21 07:45:24;;;;;;;6.95;3.45;;;;;;;28.81;52.06;94027.44;5089158;28;20234;-72
2022/08/21 07:47:51;;;;;;;6.10;3.92;;;;;;;28.25;52.80;94031.19;5089528;28;20251;-73
2022/08/21 07:50:19;;;;;;;7.20;4.25;;;;;;;29.25;50.46;94021.63;5089262;28;20281;-73
2022/08/21 07:52:46;;;;;;;7.55;4.38;;;;;;;29.51;48.44;94011.00;5089388;28;20194;-72
2022/08/21 07:55:17;;;;;;;8.82;4.30;;;;;;;30.55;47.95;94013.50;5087171;28;20226;-73
2022/08/21 07:57:44;;;;;;;5.97;3.83;;;;;;;31.16;46.48;94017.00;5086077;28;20197;-73
2022/08/21 08:00:15;;;;;;;8.07;4.47;;;;;;;28.88;49.69;94027.13;5089102;28;20202;-74
2022/08/21 08:02:49;;;;;;;8.40;4.97;;;;;;;26.30;56.42;94036.97;5085454;28;20259;-74
2022/08/21 08:05:17;;;;;;;7.20;4.95;;;;;;;26.05;59.13;94037.69;5089153;28;20191;-74
2022/08/21 08:07:44;;;;;;;9.40;5.05;;;;;;;26.26;58.32;94036.25;5088880;28;20660;-73
2022/08/21 08:10:11;;;;;;;9.07;5.10;;;;;;;26.53;56.30;94033.88;5089109;28;20209;-73
2022/08/21 08:12:41;;;;;;;9.43;4.03;;;;;;;27.31;53.66;94038.91;5088555;28;20206;-73
2022/08/21 08:15:11;;;;;;;8.40;5.32;;;;;;;26.96;55.14;94033.31;5080728;28;20304;-74
2022/08/21 08:17:38;;;;;;;7.50;4.75;;;;;;;25.69;61.31;94038.72;5088476;28;20237;-75
2022/08/21 08:20:06;;;;;;;9.90;5.15;;;;;;;25.10;60.46;94031.53;5088403;28;20271;-75
2022/08/21 08:22:35;;;;;;;7.65;4.47;;;;;;;25.24;61.10;94040.72;5089050;28;20202;-73
2022/08/21 08:25:02;;;;;;;6.40;4.68;;;;;;;25.96;57.70;94041.13;5088955;28;20263;-73
2022/08/21 08:27:29;;;;;;;9.75;4.60;;;;;;;26.28;56.85;94033.81;5088326;28;20203;-73
2022/08/21 08:29:57;;;;;;;6.65;4.30;;;;;;;27.11;56.51;94033.63;5088723;28;20202;-73
2022/08/21 08:32:24;;;;;;;10.23;6.28;;;;;;;25.57;59.96;94046.94;5089723;28;20561;-75
2022/08/21 08:34:52;;;;;;;10.73;6.93;;;;;;;25.08;61.77;94038.72;5092547;28;20287;-73
2022/08/21 08:37:20;;;;;;;10.50;6.28;;;;;;;24.84;62.92;94045.66;5092739;28;20252;-74
2022/08/21 08:39:48;;;;;;;10.65;6.25;;;;;;;25.29;61.24;94040.94;5092568;28;20194;-73
2022/08/21 08:42:18;;;;;;;11.25;6.25;;;;;;;25.49;61.08;94041.59;5092715;28;20202;-74
2022/08/21 08:44:47;;;;;;;10.77;6.13;;;;;;;25.38;60.59;94054.97;5091593;28;20232;-73
2022/08/21 08:47:17;;;;;;;11.63;5.63;;;;;;;25.66;60.27;94044.34;5092161;28;20251;-75
2022/08/21 08:49:54;;;;;;;8.60;5.63;;;;;;;25.57;59.99;94044.16;5091849;28;20197;-72
2022/08/21 08:52:25;;;;;;;9.35;5.20;;;;;;;26.05;60.02;94043.25;5092668;28;20190;-73
2022/08/21 08:55:02;;;;;;;9.00;5.68;;;;;;;26.56;57.23;94035.75;5092016;28;20218;-72
2022/08/21 08:57:30;;;;;;;7.18;5.00;;;;;;;26.84;57.18;94034.84;5091526;28;20244;-74
2022/08/21 09:00:01;;;;;;;9.40;5.18;;;;;;;27.17;55.85;94031.84;5091333;28;20718;-73
2022/08/21 09:02:29;;;;;;;6.72;4.60;;;;;;;27.22;54.79;94031.25;5092045;28;20194;-73
2022/08/21 09:04:57;;;;;;;7.20;5.03;;;;;;;27.09;55.95;94025.72;5092137;28;20286;-71
2022/08/21 09:07:38;;;;;;;13.45;5.20;;;;;;;26.61;57.04;94021.31;5091981;28;20202;-72
2022/08/21 09:10:13;;;;;;;6.30;4.75;;;;;;;27.08;55.35;94024.16;5091706;28;20290;-72
2022/08/21 09:12:49;;;;;;;6.60;4.40;;;;;;;27.43;54.17;94016.63;5091741;28;20197;-72
2022/08/21 09:15:24;;;;;;;8.40;4.35;;;;;;;28.10;52.39;94007.06;5091349;28;20214;-72
2022/08/21 09:18:08;;;;;;;8.52;4.28;;;;;;;27.20;53.85;94011.44;5071248;28;21013;-72
2022/08/21 09:20:42;;;;;;;7.80;4.45;;;;;;;26.38;55.27;94002.97;5087682;28;20222;-74
2022/08/21 09:23:22;;;;;;;5.78;4.25;;;;;;;26.23;55.86;94009.41;5091606;28;20728;-73
2022/08/21 09:26:00;;;;;;;8.63;4.45;;;;;;;26.24;55.57;93999.84;5091118;28;20198;-76
2022/08/21 09:28:27;;;;;;;7.32;4.22;;;;;;;27.58;52.02;93998.22;5091120;28;20198;-74
2022/08/21 09:30:57;;;;;;;6.32;4.13;;;;;;;27.96;51.84;93986.09;5091336;28;20225;-73
2022/08/21 09:33:26;;;;;;;6.55;4.15;;;;;;;26.56;54.39;93996.88;5091315;28;20612;-74
2022/08/21 09:35:54;;;;;;;8.98;4.40;;;;;;;26.63;54.66;93993.88;5091654;28;20230;-74
2022/08/21 09:38:32;;;;;;;7.63;3.90;;;;;;;27.12;53.33;93996.25;5091235;28;20210;-74
2022/08/21 09:41:03;;;;;;;8.45;4.28;;;;;;;26.68;54.54;94001.63;5090667;28;20209;-75
2022/08/21 09:43:30;;;;;;;7.60;3.90;;;;;;;26.41;56.23;93992.97;5091084;28;20186;-74
2022/08/21 09:46:07;;;;;;;6.38;3.88;;;;;;;26.57;56.77;93984.53;5079913;28;20202;-75
2022/08/21 09:48:43;;;;;;;5.85;4.22;;;;;;;26.56;54.63;93991.31;5090481;28;20214;-75
2022/08/21 09:51:12;;;;;;;8.18;4.05;;;;;;;26.80;54.05;93988.94;5091212;28;20601;-75
2022/08/21 09:53:43;;;;;;;7.15;4.20;;;;;;;26.52;54.68;93996.19;5091082;28;20297;-74
2022/08/21 09:59:15;;;;;;;6.30;4.05;;;;;;;25.42;57.64;93991.84;5090595;28;20220;-74
2022/08/21 10:01:45;;;;;;;6.05;4.03;;;;;;;25.38;59.48;93999.50;5070926;28;20199;-74
2022/08/21 10:04:14;;;;;;;8.52;4.60;;;;;;;25.41;59.78;93979.22;5072453;28;20284;-74
2022/08/21 10:06:41;;;;;;;7.57;4.07;;;;;;;24.97;60.38;93989.13;5091201;28;20291;-74
2022/08/21 10:09:14;;;;;;;7.32;4.32;;;;;;;24.98;61.15;93987.91;5090727;28;20202;-75
2022/08/21 10:11:44;;;;;;;6.65;4.18;;;;;;;24.65;61.15;93994.66;5091361;28;20230;-73
2022/08/21 10:14:25;;;;;;;9.45;4.57;;;;;;;24.57;61.30;93982.97;5091226;28;20560;-74
2022/08/21 10:17:03;;;;;;;9.50;4.32;;;;;;;25.03;61.66;93978.28;5090962;28;20283;-76
2022/08/21 10:19:41;;;;;;;5.57;3.85;;;;;;;24.74;60.67;93978.19;5078497;28;20225;-73
2022/08/21 10:22:21;;;;;;;7.85;4.15;;;;;;;25.30;60.75;93975.94;5090632;28;20194;-74
2022/08/21 10:24:54;;;;;;;5.15;3.90;;;;;;;25.15;59.48;93966.44;5091127;28;20194;-76
2022/08/21 10:27:31;;;;;;;5.82;4.10;;;;;;;25.05;60.51;93970.28;5091141;28;20198;-73
2022/08/21 10:30:05;;;;;;;6.40;4.38;;;;;;;24.97;60.49;93971.72;5090909;28;20187;-73
2022/08/21 10:32:59;;;;;;;7.40;3.95;;;;;;;25.49;58.17;93963.94;5091060;28;20252;-74
2022/08/21 10:35:31;;;;;;;7.40;4.72;;;;;;;26.31;57.14;93955.22;5090699;28;20210;-73
2022/08/21 10:38:34;;;;;;;9.05;4.07;;;;;;;27.20;55.69;93953.03;5090474;28;20199;-74
2022/08/21 10:41:11;;;;;;;6.18;4.22;;;;;;;26.64;55.81;93950.19;5078004;28;20274;-74
2022/08/21 10:43:47;;;;;;;6.53;3.80;;;;;;;26.56;56.28;93944.06;5090606;28;20382;-73
2022/08/21 10:46:34;;;;;;;5.32;3.70;;;;;;;26.99;54.30;93951.78;5090458;28;20194;-81
2022/08/21 10:49:14;;;;;;;5.80;3.97;;;;;;;27.07;54.67;93955.09;5090184;28;20718;-75
2022/08/21 10:51:55;;;;;;;6.97;4.20;;;;;;;27.49;52.92;93945.22;5090223;28;20642;-74
2022/08/21 10:54:33;;;;;;;7.53;4.45;;;;;;;27.95;51.84;93932.41;5089927;28;20603;-74
2022/08/21 10:57:04;;;;;;;5.88;4.30;;;;;;;27.35;53.43;93934.63;5089306;28;20221;-73
2022/08/21 10:59:40;;;;;;;5.40;3.88;;;;;;;27.82;53.80;93925.38;5089765;28;20240;-75
2022/08/21 11:02:16;;;;;;;6.72;4.00;;;;;;;27.79;52.04;93926.28;5090402;28;20190;-76
2022/08/21 11:04:51;;;;;;;8.10;4.88;;;;;;;27.17;53.77;93926.16;5090049;28;20198;-74
2022/08/21 11:07:23;;;;;;;7.72;3.97;;;;;;;26.72;56.01;93924.47;5090336;28;20206;-75
2022/08/21 11:09:50;;;;;;;4.05;3.50;;;;;;;26.32;54.39;93924.22;5090293;28;20244;-75
2022/08/21 11:12:26;;;;;;;7.47;4.00;;;;;;;25.87;56.80;93910.53;5089828;28;20271;-76
2022/08/21 11:14:58;;;;;;;7.55;4.15;;;;;;;25.91;56.70;93916.75;5088480;28;20193;-75
2022/08/21 11:17:31;;;;;;;6.15;4.10;;;;;;;25.42;57.09;93919.00;5089504;28;20292;-77
2022/08/21 11:20:06;;;;;;;4.53;3.67;;;;;;;25.69;57.14;93915.84;5089402;28;20364;-77
2022/08/21 11:22:41;;;;;;;6.50;3.78;;;;;;;25.66;56.15;93911.19;5090098;28;20190;-75
2022/08/21 11:25:14;;;;;;;7.55;3.83;;;;;;;26.02;56.98;93905.31;5089047;28;20197;-75
2022/08/21 11:27:46;;;;;;;5.13;3.65;;;;;;;25.90;56.45;93904.09;5089167;28;20244;-76
2022/08/21 11:30:13;;;;;;;5.25;3.40;;;;;;;25.47;57.25;93910.13;5089334;28;20236;-75
2022/08/21 11:33:05;;;;;;;5.30;3.30;;;;;;;25.74;57.32;93902.19;5089794;28;20224;-75
2022/08/21 11:35:39;;;;;;;3.83;3.42;;;;;;;25.94;55.17;93898.44;5089424;28;20267;-74
2022/08/21 11:38:27;;;;;;;3.92;3.22;;;;;;;25.62;56.00;93902.19;5089277;28;20259;-74
2022/08/21 11:41:14;;;;;;;5.85;3.20;;;;;;;25.28;56.48;93898.00;5087438;28;20285;-75
2022/08/21 11:43:43;;;;;;;5.57;3.75;;;;;;;25.53;57.16;93897.25;5088442;28;20197;-75